sensor_id;sensor_type;location;lat;lon;timestamp;temperature;humidity
44990;DHT22;30723;51.206;3.326;2023-03-24T00:01:06;13.20;99.90
44990;DHT22;30723;51.206;3.326;2023-03-24T00:03:32;13.20;99.90
44990;DHT22;30723;51.206;3.326;2023-03-24T00:06:03;13.20;99.90
44990;DHT22;30723;51.206;3.326;2023-03-24T00:08:31;13.20;99.90
44990;DHT22;30723;51.206;3.326;2023-03-24T00:11:05;13.20;99.90
44990;DHT22;30723;51.206;3.326;2023-03-24T00:13:33;13.20;99.90
44990;DHT22;30723;51.206;3.326;2023-03-24T00:16:08;13.30;99.90
44990;DHT22;30723;51.206;3.326;2023-03-24T00:18:37;13.30;99.90
44990;DHT22;30723;51.206;3.326;2023-03-24T00:21:06;13.30;99.90
44990;DHT22;30723;51.206;3.326;2023-03-24T00:23:34;13.20;99.90
44990;DHT22;30723;51.206;3.326;2023-03-24T00:26:05;13.10;99.90
44990;DHT22;30723;51.206;3.326;2023-03-24T00:28:34;13.10;99.90
44990;DHT22;30723;51.206;3.326;2023-03-24T00:31:02;13.00;99.90
44990;DHT22;30723;51.206;3.326;2023-03-24T00:33:30;12.90;99.90
44990;DHT22;30723;51.206;3.326;2023-03-24T00:35:58;12.80;99.90
44990;DHT22;30723;51.206;3.326;2023-03-24T00:38:24;12.80;99.90
44990;DHT22;30723;51.206;3.326;2023-03-24T00:40:51;12.80;99.90
44990;DHT22;30723;51.206;3.326;2023-03-24T00:43:18;12.70;99.90
44990;DHT22;30723;51.206;3.326;2023-03-24T00:45:45;12.60;99.90
44990;DHT22;30723;51.206;3.326;2023-03-24T00:48:17;12.60;99.90
44990;DHT22;30723;51.206;3.326;2023-03-24T00:50:48;12.60;99.90
44990;DHT22;30723;51.206;3.326;2023-03-24T00:53:15;12.50;99.90
44990;DHT22;30723;51.206;3.326;2023-03-24T00:55:43;12.30;99.90
44990;DHT22;30723;51.206;3.326;2023-03-24T00:58:12;12.20;99.90
44990;DHT22;30723;51.206;3.326;2023-03-24T01:00:52;12.00;99.90
44990;DHT22;30723;51.206;3.326;2023-03-24T01:03:23;11.90;99.90
44990;DHT22;30723;51.206;3.326;2023-03-24T01:05:53;11.80;99.90
44990;DHT22;30723;51.206;3.326;2023-03-24T01:08:22;11.80;99.90
44990;DHT22;30723;51.206;3.326;2023-03-24T01:10:50;11.60;99.90
44990;DHT22;30723;51.206;3.326;2023-03-24T01:13:38;11.60;99.90
44990;DHT22;30723;51.206;3.326;2023-03-24T01:16:06;11.50;99.90
44990;DHT22;30723;51.206;3.326;2023-03-24T01:18:34;11.40;99.90
44990;DHT22;30723;51.206;3.326;2023-03-24T01:21:00;11.40;99.90
44990;DHT22;30723;51.206;3.326;2023-03-24T01:23:26;11.30;99.90
44990;DHT22;30723;51.206;3.326;2023-03-24T01:25:56;11.30;99.90
44990;DHT22;30723;51.206;3.326;2023-03-24T01:28:23;11.20;99.90
44990;DHT22;30723;51.206;3.326;2023-03-24T01:30:53;11.10;99.90
44990;DHT22;30723;51.206;3.326;2023-03-24T01:33:19;11.10;99.90
44990;DHT22;30723;51.206;3.326;2023-03-24T01:35:45;11.10;99.90
44990;DHT22;30723;51.206;3.326;2023-03-24T01:38:12;11.00;99.90
44990;DHT22;30723;51.206;3.326;2023-03-24T01:40:42;11.00;99.90
44990;DHT22;30723;51.206;3.326;2023-03-24T01:43:22;11.00;99.90
44990;DHT22;30723;51.206;3.326;2023-03-24T01:45:56;11.00;99.90
44990;DHT22;30723;51.206;3.326;2023-03-24T01:54:03;10.90;99.90
44990;DHT22;30723;51.206;3.326;2023-03-24T01:56:35;10.90;99.90
44990;DHT22;30723;51.206;3.326;2023-03-24T01:59:24;10.90;99.90
44990;DHT22;30723;51.206;3.326;2023-03-24T02:01:53;10.90;99.90
44990;DHT22;30723;51.206;3.326;2023-03-24T02:04:37;11.00;99.90
44990;DHT22;30723;51.206;3.326;2023-03-24T02:07:28;11.00;99.90
44990;DHT22;30723;51.206;3.326;2023-03-24T02:09:56;10.90;99.90
44990;DHT22;30723;51.206;3.326;2023-03-24T02:12:23;11.00;99.90
44990;DHT22;30723;51.206;3.326;2023-03-24T02:14:49;11.00;99.90
44990;DHT22;30723;51.206;3.326;2023-03-24T02:34:16;11.00;99.90
44990;DHT22;30723;51.206;3.326;2023-03-24T02:50:17;10.90;99.90
44990;DHT22;30723;51.206;3.326;2023-03-24T02:55:45;10.80;99.90
44990;DHT22;30723;51.206;3.326;2023-03-24T02:58:31;10.70;99.90
44990;DHT22;30723;51.206;3.326;2023-03-24T03:01:28;10.60;99.90
44990;DHT22;30723;51.206;3.326;2023-03-24T03:04:02;10.60;99.90
44990;DHT22;30723;51.206;3.326;2023-03-24T03:06:32;10.50;99.90
44990;DHT22;30723;51.206;3.326;2023-03-24T03:09:03;10.50;99.90
44990;DHT22;30723;51.206;3.326;2023-03-24T03:11:32;10.40;99.90
44990;DHT22;30723;51.206;3.326;2023-03-24T03:14:05;10.40;99.90
44990;DHT22;30723;51.206;3.326;2023-03-24T03:16:38;10.50;99.90
44990;DHT22;30723;51.206;3.326;2023-03-24T03:19:16;10.50;99.90
44990;DHT22;30723;51.206;3.326;2023-03-24T03:21:43;10.40;99.90
44990;DHT22;30723;51.206;3.326;2023-03-24T03:24:18;10.50;99.90
44990;DHT22;30723;51.206;3.326;2023-03-24T03:26:59;10.50;99.90
44990;DHT22;30723;51.206;3.326;2023-03-24T03:29:30;10.50;99.90
44990;DHT22;30723;51.206;3.326;2023-03-24T03:32:01;10.50;99.90
44990;DHT22;30723;51.206;3.326;2023-03-24T03:34:36;10.50;99.90
44990;DHT22;30723;51.206;3.326;2023-03-24T03:37:48;10.60;99.90
44990;DHT22;30723;51.206;3.326;2023-03-24T03:40:48;10.50;99.90
44990;DHT22;30723;51.206;3.326;2023-03-24T03:43:15;10.40;99.90
44990;DHT22;30723;51.206;3.326;2023-03-24T03:45:41;10.50;99.90
44990;DHT22;30723;51.206;3.326;2023-03-24T03:48:27;10.40;99.90
44990;DHT22;30723;51.206;3.326;2023-03-24T03:51:13;10.40;99.90
44990;DHT22;30723;51.206;3.326;2023-03-24T03:53:54;10.40;99.90
44990;DHT22;30723;51.206;3.326;2023-03-24T03:56:25;10.50;99.90
44990;DHT22;30723;51.206;3.326;2023-03-24T03:59:32;10.50;99.90
44990;DHT22;30723;51.206;3.326;2023-03-24T04:16:02;10.70;99.90
44990;DHT22;30723;51.206;3.326;2023-03-24T04:30:21;10.70;99.90
44990;DHT22;30723;51.206;3.326;2023-03-24T04:32:58;10.70;99.90
44990;DHT22;30723;51.206;3.326;2023-03-24T04:35:35;10.70;99.90
44990;DHT22;30723;51.206;3.326;2023-03-24T04:38:17;10.70;99.90
44990;DHT22;30723;51.206;3.326;2023-03-24T04:40:49;10.70;99.90
44990;DHT22;30723;51.206;3.326;2023-03-24T04:43:19;10.70;99.90
44990;DHT22;30723;51.206;3.326;2023-03-24T04:45:47;10.70;99.90
44990;DHT22;30723;51.206;3.326;2023-03-24T04:48:16;10.80;99.90
44990;DHT22;30723;51.206;3.326;2023-03-24T04:50:54;10.80;99.90
44990;DHT22;30723;51.206;3.326;2023-03-24T04:53:21;10.70;99.90
44990;DHT22;30723;51.206;3.326;2023-03-24T04:58:42;10.70;99.90
44990;DHT22;30723;51.206;3.326;2023-03-24T05:01:09;10.70;99.90
44990;DHT22;30723;51.206;3.326;2023-03-24T05:03:36;10.70;99.90
44990;DHT22;30723;51.206;3.326;2023-03-24T05:06:03;10.70;99.90
44990;DHT22;30723;51.206;3.326;2023-03-24T05:08:30;10.70;99.90
44990;DHT22;30723;51.206;3.326;2023-03-24T05:10:57;10.70;99.90
44990;DHT22;30723;51.206;3.326;2023-03-24T05:13:22;10.70;99.90
44990;DHT22;30723;51.206;3.326;2023-03-24T05:15:51;10.70;99.90
44990;DHT22;30723;51.206;3.326;2023-03-24T05:18:18;10.70;99.90
44990;DHT22;30723;51.206;3.326;2023-03-24T05:20:45;10.80;99.90
44990;DHT22;30723;51.206;3.326;2023-03-24T05:23:11;10.70;99.90
44990;DHT22;30723;51.206;3.326;2023-03-24T05:25:37;10.60;99.90
44990;DHT22;30723;51.206;3.326;2023-03-24T05:28:02;10.60;99.90
44990;DHT22;30723;51.206;3.326;2023-03-24T05:30:28;10.60;99.90
44990;DHT22;30723;51.206;3.326;2023-03-24T05:32:55;10.50;99.90
44990;DHT22;30723;51.206;3.326;2023-03-24T05:35:21;10.50;99.90
44990;DHT22;30723;51.206;3.326;2023-03-24T05:37:47;10.50;99.90
44990;DHT22;30723;51.206;3.326;2023-03-24T05:40:14;10.60;99.90
44990;DHT22;30723;51.206;3.326;2023-03-24T05:42:40;10.70;99.90
44990;DHT22;30723;51.206;3.326;2023-03-24T05:45:10;10.70;99.90
44990;DHT22;30723;51.206;3.326;2023-03-24T05:47:36;10.70;99.90
44990;DHT22;30723;51.206;3.326;2023-03-24T05:50:03;10.70;99.90
44990;DHT22;30723;51.206;3.326;2023-03-24T05:52:29;10.70;99.90
44990;DHT22;30723;51.206;3.326;2023-03-24T05:54:56;10.70;99.90
44990;DHT22;30723;51.206;3.326;2023-03-24T05:57:23;10.80;99.90
44990;DHT22;30723;51.206;3.326;2023-03-24T05:59:49;10.70;99.90
44990;DHT22;30723;51.206;3.326;2023-03-24T06:02:17;10.70;99.90
44990;DHT22;30723;51.206;3.326;2023-03-24T06:04:43;10.80;99.90
44990;DHT22;30723;51.206;3.326;2023-03-24T06:07:14;10.80;99.90
44990;DHT22;30723;51.206;3.326;2023-03-24T06:09:40;10.90;99.90
44990;DHT22;30723;51.206;3.326;2023-03-24T06:12:11;11.00;99.90
44990;DHT22;30723;51.206;3.326;2023-03-24T06:14:38;11.00;99.90
44990;DHT22;30723;51.206;3.326;2023-03-24T06:17:07;11.00;99.90
44990;DHT22;30723;51.206;3.326;2023-03-24T06:19:33;11.00;99.90
44990;DHT22;30723;51.206;3.326;2023-03-24T06:22:00;11.00;99.90
44990;DHT22;30723;51.206;3.326;2023-03-24T06:24:29;11.00;99.90
44990;DHT22;30723;51.206;3.326;2023-03-24T06:26:55;11.00;99.90
44990;DHT22;30723;51.206;3.326;2023-03-24T06:29:29;11.00;99.90
44990;DHT22;30723;51.206;3.326;2023-03-24T06:31:56;11.00;99.90
44990;DHT22;30723;51.206;3.326;2023-03-24T06:34:22;11.00;99.90
44990;DHT22;30723;51.206;3.326;2023-03-24T06:36:50;11.00;99.90
44990;DHT22;30723;51.206;3.326;2023-03-24T06:39:18;11.10;99.90
44990;DHT22;30723;51.206;3.326;2023-03-24T06:41:43;11.20;99.90
44990;DHT22;30723;51.206;3.326;2023-03-24T06:44:09;11.10;99.90
44990;DHT22;30723;51.206;3.326;2023-03-24T06:46:36;11.10;99.90
44990;DHT22;30723;51.206;3.326;2023-03-24T06:49:03;11.10;99.90
44990;DHT22;30723;51.206;3.326;2023-03-24T06:51:29;11.10;99.90
44990;DHT22;30723;51.206;3.326;2023-03-24T06:53:56;11.10;99.90
44990;DHT22;30723;51.206;3.326;2023-03-24T06:56:22;11.10;99.90
44990;DHT22;30723;51.206;3.326;2023-03-24T06:58:48;11.00;99.90
44990;DHT22;30723;51.206;3.326;2023-03-24T07:01:14;10.90;99.90
44990;DHT22;30723;51.206;3.326;2023-03-24T07:03:40;10.90;99.90
44990;DHT22;30723;51.206;3.326;2023-03-24T07:06:08;10.90;99.90
44990;DHT22;30723;51.206;3.326;2023-03-24T07:08:35;10.90;99.90
44990;DHT22;30723;51.206;3.326;2023-03-24T07:11:02;10.90;99.90
44990;DHT22;30723;51.206;3.326;2023-03-24T07:13:28;11.00;99.90
44990;DHT22;30723;51.206;3.326;2023-03-24T07:15:54;11.00;99.90
44990;DHT22;30723;51.206;3.326;2023-03-24T07:18:20;11.10;99.90
44990;DHT22;30723;51.206;3.326;2023-03-24T07:20:47;11.20;99.90
44990;DHT22;30723;51.206;3.326;2023-03-24T07:23:14;11.20;99.90
44990;DHT22;30723;51.206;3.326;2023-03-24T07:25:41;11.30;99.90
44990;DHT22;30723;51.206;3.326;2023-03-24T07:28:08;11.40;99.90
44990;DHT22;30723;51.206;3.326;2023-03-24T07:30:34;11.40;99.90
44990;DHT22;30723;51.206;3.326;2023-03-24T07:33:04;11.40;99.90
44990;DHT22;30723;51.206;3.326;2023-03-24T07:35:31;11.30;99.90
44990;DHT22;30723;51.206;3.326;2023-03-24T07:38:00;11.30;99.90
44990;DHT22;30723;51.206;3.326;2023-03-24T07:40:27;11.20;99.90
44990;DHT22;30723;51.206;3.326;2023-03-24T07:42:58;11.10;99.90
44990;DHT22;30723;51.206;3.326;2023-03-24T07:45:24;10.90;99.90
44990;DHT22;30723;51.206;3.326;2023-03-24T07:47:50;10.80;99.90
44990;DHT22;30723;51.206;3.326;2023-03-24T07:50:16;10.80;99.90
44990;DHT22;30723;51.206;3.326;2023-03-24T07:52:49;10.70;99.90
44990;DHT22;30723;51.206;3.326;2023-03-24T07:55:16;10.70;99.90
44990;DHT22;30723;51.206;3.326;2023-03-24T07:57:46;10.80;99.90
44990;DHT22;30723;51.206;3.326;2023-03-24T08:00:13;10.90;99.90
44990;DHT22;30723;51.206;3.326;2023-03-24T08:02:51;10.90;99.90
44990;DHT22;30723;51.206;3.326;2023-03-24T08:05:18;11.10;99.90
44990;DHT22;30723;51.206;3.326;2023-03-24T08:07:50;11.10;99.90
44990;DHT22;30723;51.206;3.326;2023-03-24T08:10:28;11.10;99.90
44990;DHT22;30723;51.206;3.326;2023-03-24T08:12:56;11.10;99.90
44990;DHT22;30723;51.206;3.326;2023-03-24T08:15:23;11.00;99.90
44990;DHT22;30723;51.206;3.326;2023-03-24T08:17:50;11.10;99.90
44990;DHT22;30723;51.206;3.326;2023-03-24T08:20:17;11.20;99.90
44990;DHT22;30723;51.206;3.326;2023-03-24T08:22:45;11.40;99.90
44990;DHT22;30723;51.206;3.326;2023-03-24T08:25:19;11.50;99.90
44990;DHT22;30723;51.206;3.326;2023-03-24T08:27:46;11.60;99.90
44990;DHT22;30723;51.206;3.326;2023-03-24T08:30:17;11.70;99.90
44990;DHT22;30723;51.206;3.326;2023-03-24T08:32:49;11.80;99.90
44990;DHT22;30723;51.206;3.326;2023-03-24T08:35:18;11.90;99.90
44990;DHT22;30723;51.206;3.326;2023-03-24T08:37:44;11.90;99.90
44990;DHT22;30723;51.206;3.326;2023-03-24T08:40:16;11.90;99.90
44990;DHT22;30723;51.206;3.326;2023-03-24T08:42:47;11.90;99.90
44990;DHT22;30723;51.206;3.326;2023-03-24T08:45:14;12.00;99.90
44990;DHT22;30723;51.206;3.326;2023-03-24T08:47:40;12.10;99.90
44990;DHT22;30723;51.206;3.326;2023-03-24T08:50:08;12.20;99.90
44990;DHT22;30723;51.206;3.326;2023-03-24T08:52:34;12.30;99.90
44990;DHT22;30723;51.206;3.326;2023-03-24T08:55:02;12.40;99.90
44990;DHT22;30723;51.206;3.326;2023-03-24T08:57:28;12.40;99.90
44990;DHT22;30723;51.206;3.326;2023-03-24T08:59:54;12.50;99.90
44990;DHT22;30723;51.206;3.326;2023-03-24T09:02:20;12.60;99.90
44990;DHT22;30723;51.206;3.326;2023-03-24T09:04:47;12.60;99.90
44990;DHT22;30723;51.206;3.326;2023-03-24T09:07:18;12.80;99.90
44990;DHT22;30723;51.206;3.326;2023-03-24T09:09:45;12.90;99.90
44990;DHT22;30723;51.206;3.326;2023-03-24T09:12:11;12.90;99.90
44990;DHT22;30723;51.206;3.326;2023-03-24T09:14:36;12.80;99.90
44990;DHT22;30723;51.206;3.326;2023-03-24T09:17:02;12.70;99.90
44990;DHT22;30723;51.206;3.326;2023-03-24T09:19:28;12.60;99.90
44990;DHT22;30723;51.206;3.326;2023-03-24T09:21:53;12.70;99.90
44990;DHT22;30723;51.206;3.326;2023-03-24T09:24:19;12.80;99.90
44990;DHT22;30723;51.206;3.326;2023-03-24T09:26:45;12.80;99.90
44990;DHT22;30723;51.206;3.326;2023-03-24T09:29:11;12.90;99.90
44990;DHT22;30723;51.206;3.326;2023-03-24T09:31:37;12.90;99.90
44990;DHT22;30723;51.206;3.326;2023-03-24T09:34:03;12.90;99.90
44990;DHT22;30723;51.206;3.326;2023-03-24T09:36:30;13.00;99.90
44990;DHT22;30723;51.206;3.326;2023-03-24T09:38:57;12.90;99.90
44990;DHT22;30723;51.206;3.326;2023-03-24T09:41:30;12.90;99.90
44990;DHT22;30723;51.206;3.326;2023-03-24T09:49:41;13.30;99.90
44990;DHT22;30723;51.206;3.326;2023-03-24T09:52:12;13.60;99.90
44990;DHT22;30723;51.206;3.326;2023-03-24T09:57:42;13.90;99.90
44990;DHT22;30723;51.206;3.326;2023-03-24T10:00:26;13.80;99.90
44990;DHT22;30723;51.206;3.326;2023-03-24T10:02:53;13.80;99.90
44990;DHT22;30723;51.206;3.326;2023-03-24T10:05:25;13.90;99.90
44990;DHT22;30723;51.206;3.326;2023-03-24T10:08:46;14.10;99.90
44990;DHT22;30723;51.206;3.326;2023-03-24T10:11:02;14.10;99.90
44990;DHT22;30723;51.206;3.326;2023-03-24T10:13:42;14.40;99.90
44990;DHT22;30723;51.206;3.326;2023-03-24T10:16:21;15.20;99.90
44990;DHT22;30723;51.206;3.326;2023-03-24T10:21:53;15.50;99.90
44990;DHT22;30723;51.206;3.326;2023-03-24T10:29:40;17.20;99.90
44990;DHT22;30723;51.206;3.326;2023-03-24T10:34:44;16.40;99.90
44990;DHT22;30723;51.206;3.326;2023-03-24T10:37:13;15.70;99.90
44990;DHT22;30723;51.206;3.326;2023-03-24T10:39:39;15.40;99.90
44990;DHT22;30723;51.206;3.326;2023-03-24T10:42:08;15.20;99.90
44990;DHT22;30723;51.206;3.326;2023-03-24T10:44:36;15.20;99.90
44990;DHT22;30723;51.206;3.326;2023-03-24T10:47:04;15.10;99.90
44990;DHT22;30723;51.206;3.326;2023-03-24T10:49:33;15.10;99.90
44990;DHT22;30723;51.206;3.326;2023-03-24T10:52:01;15.40;99.90
44990;DHT22;30723;51.206;3.326;2023-03-24T10:54:33;15.70;99.90
44990;DHT22;30723;51.206;3.326;2023-03-24T10:57:00;15.70;99.90
44990;DHT22;30723;51.206;3.326;2023-03-24T10:59:35;15.60;99.90
44990;DHT22;30723;51.206;3.326;2023-03-24T11:02:18;15.10;99.90
44990;DHT22;30723;51.206;3.326;2023-03-24T11:04:56;14.20;99.90
44990;DHT22;30723;51.206;3.326;2023-03-24T11:07:34;13.40;99.90
44990;DHT22;30723;51.206;3.326;2023-03-24T11:15:30;11.50;99.90
44990;DHT22;30723;51.206;3.326;2023-03-24T11:21:00;11.20;99.90
44990;DHT22;30723;51.206;3.326;2023-03-24T11:23:40;11.20;99.90
44990;DHT22;30723;51.206;3.326;2023-03-24T11:29:11;11.40;99.90
44990;DHT22;30723;51.206;3.326;2023-03-24T11:31:39;11.50;99.90
44990;DHT22;30723;51.206;3.326;2023-03-24T11:34:29;11.50;99.90
44990;DHT22;30723;51.206;3.326;2023-03-24T11:37:24;11.50;99.90
44990;DHT22;30723;51.206;3.326;2023-03-24T11:40:15;11.50;99.90
44990;DHT22;30723;51.206;3.326;2023-03-24T11:43:01;11.30;99.90
44990;DHT22;30723;51.206;3.326;2023-03-24T11:45:55;11.30;99.90
44990;DHT22;30723;51.206;3.326;2023-03-24T11:48:33;11.20;99.90
44990;DHT22;30723;51.206;3.326;2023-03-24T11:51:29;11.30;99.90
44990;DHT22;30723;51.206;3.326;2023-03-24T11:54:18;11.40;99.90
44990;DHT22;30723;51.206;3.326;2023-03-24T11:57:11;11.50;99.90
44990;DHT22;30723;51.206;3.326;2023-03-24T12:04:38;11.20;99.90
44990;DHT22;30723;51.206;3.326;2023-03-24T12:07:21;11.00;99.90
44990;DHT22;30723;51.206;3.326;2023-03-24T12:12:26;10.90;99.90
44990;DHT22;30723;51.206;3.326;2023-03-24T12:18:09;10.70;99.90
44990;DHT22;30723;51.206;3.326;2023-03-24T12:23:46;11.60;99.90
44990;DHT22;30723;51.206;3.326;2023-03-24T12:26:36;12.90;99.90
44990;DHT22;30723;51.206;3.326;2023-03-24T12:46:31;17.00;99.90
44990;DHT22;30723;51.206;3.326;2023-03-24T12:52:00;16.20;99.90
44990;DHT22;30723;51.206;3.326;2023-03-24T12:54:53;16.50;99.90
44990;DHT22;30723;51.206;3.326;2023-03-24T12:57:24;16.50;99.90
44990;DHT22;30723;51.206;3.326;2023-03-24T12:59:56;16.80;99.90
44990;DHT22;30723;51.206;3.326;2023-03-24T13:02:33;16.50;99.90
44990;DHT22;30723;51.206;3.326;2023-03-24T13:05:04;16.10;99.90
44990;DHT22;30723;51.206;3.326;2023-03-24T13:07:34;15.70;99.90
44990;DHT22;30723;51.206;3.326;2023-03-24T13:10:16;16.80;99.90
44990;DHT22;30723;51.206;3.326;2023-03-24T13:13:15;16.80;99.90
44990;DHT22;30723;51.206;3.326;2023-03-24T13:15:56;17.10;99.90
44990;DHT22;30723;51.206;3.326;2023-03-24T13:18:44;16.70;99.90
44990;DHT22;30723;51.206;3.326;2023-03-24T13:21:13;15.90;99.90
44990;DHT22;30723;51.206;3.326;2023-03-24T13:26:39;15.10;99.90
44990;DHT22;30723;51.206;3.326;2023-03-24T13:31:57;16.40;99.90
44990;DHT22;30723;51.206;3.326;2023-03-24T13:34:28;16.70;99.90
44990;DHT22;30723;51.206;3.326;2023-03-24T13:37:09;16.10;99.90
44990;DHT22;30723;51.206;3.326;2023-03-24T13:39:43;15.80;99.90
44990;DHT22;30723;51.206;3.326;2023-03-24T13:44:59;17.60;99.90
44990;DHT22;30723;51.206;3.326;2023-03-24T13:47:27;17.70;99.90
44990;DHT22;30723;51.206;3.326;2023-03-24T13:50:14;17.80;99.90
44990;DHT22;30723;51.206;3.326;2023-03-24T13:52:45;18.40;99.90
44990;DHT22;30723;51.206;3.326;2023-03-24T13:55:22;18.20;99.90
44990;DHT22;30723;51.206;3.326;2023-03-24T13:57:59;17.70;99.90
44990;DHT22;30723;51.206;3.326;2023-03-24T14:00:26;17.70;99.90
44990;DHT22;30723;51.206;3.326;2023-03-24T14:03:30;17.80;99.90
44990;DHT22;30723;51.206;3.326;2023-03-24T14:06:01;17.90;99.90
44990;DHT22;30723;51.206;3.326;2023-03-24T14:14:06;17.90;99.90
44990;DHT22;30723;51.206;3.326;2023-03-24T14:21:43;16.50;99.90
44990;DHT22;30723;51.206;3.326;2023-03-24T14:24:22;16.20;99.90
44990;DHT22;30723;51.206;3.326;2023-03-24T14:26:50;16.40;99.90
44990;DHT22;30723;51.206;3.326;2023-03-24T14:29:36;15.90;99.90
44990;DHT22;30723;51.206;3.326;2023-03-24T14:32:03;16.00;99.90
44990;DHT22;30723;51.206;3.326;2023-03-24T14:34:29;15.60;99.90
44990;DHT22;30723;51.206;3.326;2023-03-24T14:37:02;15.30;99.90
44990;DHT22;30723;51.206;3.326;2023-03-24T14:39:45;15.20;99.90
44990;DHT22;30723;51.206;3.326;2023-03-24T14:42:27;15.80;99.90
44990;DHT22;30723;51.206;3.326;2023-03-24T14:45:38;16.30;99.90
44990;DHT22;30723;51.206;3.326;2023-03-24T14:48:22;15.90;99.90
44990;DHT22;30723;51.206;3.326;2023-03-24T14:50:52;15.30;99.90
44990;DHT22;30723;51.206;3.326;2023-03-24T14:53:19;15.20;99.90
44990;DHT22;30723;51.206;3.326;2023-03-24T14:55:47;15.40;99.90
44990;DHT22;30723;51.206;3.326;2023-03-24T14:58:43;15.70;99.90
44990;DHT22;30723;51.206;3.326;2023-03-24T15:01:11;15.60;99.90
44990;DHT22;30723;51.206;3.326;2023-03-24T15:06:22;15.00;99.90
44990;DHT22;30723;51.206;3.326;2023-03-24T15:08:54;15.20;99.90
44990;DHT22;30723;51.206;3.326;2023-03-24T15:11:45;16.10;99.90
44990;DHT22;30723;51.206;3.326;2023-03-24T15:16:51;17.00;99.90
44990;DHT22;30723;51.206;3.326;2023-03-24T15:19:26;16.60;99.90
44990;DHT22;30723;51.206;3.326;2023-03-24T15:22:00;16.10;99.90
44990;DHT22;30723;51.206;3.326;2023-03-24T15:24:33;15.70;99.90
44990;DHT22;30723;51.206;3.326;2023-03-24T15:29:32;15.40;99.90
44990;DHT22;30723;51.206;3.326;2023-03-24T15:31:57;15.40;99.90
44990;DHT22;30723;51.206;3.326;2023-03-24T15:34:27;15.60;99.90
44990;DHT22;30723;51.206;3.326;2023-03-24T15:37:04;16.20;99.90
44990;DHT22;30723;51.206;3.326;2023-03-24T15:39:36;16.80;99.90
44990;DHT22;30723;51.206;3.326;2023-03-24T15:42:15;16.80;99.90
44990;DHT22;30723;51.206;3.326;2023-03-24T15:44:42;16.50;99.90
44990;DHT22;30723;51.206;3.326;2023-03-24T15:47:30;16.10;99.90
44990;DHT22;30723;51.206;3.326;2023-03-24T15:49:57;16.00;99.90
44990;DHT22;30723;51.206;3.326;2023-03-24T15:52:32;15.60;99.90
44990;DHT22;30723;51.206;3.326;2023-03-24T15:55:23;15.30;99.90
44990;DHT22;30723;51.206;3.326;2023-03-24T15:57:58;15.30;99.90
44990;DHT22;30723;51.206;3.326;2023-03-24T16:00:28;15.40;99.90
44990;DHT22;30723;51.206;3.326;2023-03-24T16:02:55;15.50;99.90
44990;DHT22;30723;51.206;3.326;2023-03-24T16:05:29;15.70;99.90
44990;DHT22;30723;51.206;3.326;2023-03-24T16:08:02;15.50;99.90
44990;DHT22;30723;51.206;3.326;2023-03-24T16:10:35;15.20;99.90
44990;DHT22;30723;51.206;3.326;2023-03-24T16:13:14;14.90;99.90
44990;DHT22;30723;51.206;3.326;2023-03-24T16:16:06;14.60;99.90
44990;DHT22;30723;51.206;3.326;2023-03-24T16:18:36;14.20;99.90
44990;DHT22;30723;51.206;3.326;2023-03-24T16:21:15;14.10;99.90
44990;DHT22;30723;51.206;3.326;2023-03-24T16:23:43;14.10;99.90
44990;DHT22;30723;51.206;3.326;2023-03-24T16:26:15;13.90;99.90
44990;DHT22;30723;51.206;3.326;2023-03-24T16:28:42;13.90;99.90
44990;DHT22;30723;51.206;3.326;2023-03-24T16:31:20;13.90;99.90
44990;DHT22;30723;51.206;3.326;2023-03-24T16:33:47;13.80;99.90
44990;DHT22;30723;51.206;3.326;2023-03-24T16:36:13;13.80;99.90
44990;DHT22;30723;51.206;3.326;2023-03-24T16:38:41;13.70;99.90
44990;DHT22;30723;51.206;3.326;2023-03-24T16:41:09;13.80;99.90
44990;DHT22;30723;51.206;3.326;2023-03-24T16:43:35;13.70;99.90
44990;DHT22;30723;51.206;3.326;2023-03-24T16:46:02;13.60;99.90
44990;DHT22;30723;51.206;3.326;2023-03-24T16:48:28;13.60;99.90
44990;DHT22;30723;51.206;3.326;2023-03-24T16:50:54;13.50;99.90
44990;DHT22;30723;51.206;3.326;2023-03-24T16:53:20;13.40;99.90
44990;DHT22;30723;51.206;3.326;2023-03-24T16:55:46;13.40;99.90
44990;DHT22;30723;51.206;3.326;2023-03-24T16:58:14;13.30;99.90
44990;DHT22;30723;51.206;3.326;2023-03-24T17:00:41;13.30;99.90
44990;DHT22;30723;51.206;3.326;2023-03-24T17:03:11;13.30;99.90
44990;DHT22;30723;51.206;3.326;2023-03-24T17:05:46;13.40;99.90
44990;DHT22;30723;51.206;3.326;2023-03-24T17:08:14;13.40;99.90
44990;DHT22;30723;51.206;3.326;2023-03-24T17:10:42;13.40;99.90
44990;DHT22;30723;51.206;3.326;2023-03-24T17:13:13;13.50;99.90
44990;DHT22;30723;51.206;3.326;2023-03-24T17:15:40;13.50;99.90
44990;DHT22;30723;51.206;3.326;2023-03-24T17:18:07;13.50;99.90
44990;DHT22;30723;51.206;3.326;2023-03-24T17:20:33;13.50;99.90
44990;DHT22;30723;51.206;3.326;2023-03-24T17:22:59;13.50;99.90
44990;DHT22;30723;51.206;3.326;2023-03-24T17:25:26;13.40;99.90
44990;DHT22;30723;51.206;3.326;2023-03-24T17:27:55;13.30;99.90
44990;DHT22;30723;51.206;3.326;2023-03-24T17:30:23;13.20;99.90
44990;DHT22;30723;51.206;3.326;2023-03-24T17:32:49;13.10;99.90
44990;DHT22;30723;51.206;3.326;2023-03-24T17:35:18;13.00;99.90
44990;DHT22;30723;51.206;3.326;2023-03-24T17:37:44;13.00;99.90
44990;DHT22;30723;51.206;3.326;2023-03-24T17:40:12;13.00;99.90
44990;DHT22;30723;51.206;3.326;2023-03-24T17:42:39;12.90;99.90
44990;DHT22;30723;51.206;3.326;2023-03-24T17:45:07;12.90;99.90
44990;DHT22;30723;51.206;3.326;2023-03-24T17:47:35;12.80;99.90
44990;DHT22;30723;51.206;3.326;2023-03-24T17:50:01;12.70;99.90
44990;DHT22;30723;51.206;3.326;2023-03-24T17:52:29;12.60;99.90
44990;DHT22;30723;51.206;3.326;2023-03-24T17:54:54;12.60;99.90
44990;DHT22;30723;51.206;3.326;2023-03-24T17:57:20;12.60;99.90
44990;DHT22;30723;51.206;3.326;2023-03-24T17:59:47;12.50;99.90
44990;DHT22;30723;51.206;3.326;2023-03-24T18:02:12;12.50;99.90
44990;DHT22;30723;51.206;3.326;2023-03-24T18:04:38;12.40;99.90
44990;DHT22;30723;51.206;3.326;2023-03-24T18:07:04;12.40;99.90
44990;DHT22;30723;51.206;3.326;2023-03-24T18:09:33;12.40;99.90
44990;DHT22;30723;51.206;3.326;2023-03-24T18:11:59;12.30;99.90
44990;DHT22;30723;51.206;3.326;2023-03-24T18:14:25;12.30;99.90
44990;DHT22;30723;51.206;3.326;2023-03-24T18:16:51;12.30;99.90
44990;DHT22;30723;51.206;3.326;2023-03-24T18:19:16;12.30;99.90
44990;DHT22;30723;51.206;3.326;2023-03-24T18:21:42;12.30;99.90
44990;DHT22;30723;51.206;3.326;2023-03-24T18:24:10;12.30;99.90
44990;DHT22;30723;51.206;3.326;2023-03-24T18:26:37;12.30;99.90
44990;DHT22;30723;51.206;3.326;2023-03-24T18:29:05;12.20;99.90
44990;DHT22;30723;51.206;3.326;2023-03-24T18:31:31;12.20;99.90
44990;DHT22;30723;51.206;3.326;2023-03-24T18:33:57;12.20;99.90
44990;DHT22;30723;51.206;3.326;2023-03-24T18:36:23;12.10;99.90